Flugplatz - Wetter - Augsburg

[Quelle: ADDS]
METAR
EDMA 221250Z VRB02KT CAVOK 16/09 Q1021 =
TAF
EDMA 221100Z 2212/2221 VRB03KT CAVOK =
SR / SS: 05:06 / 17:16 UTC (Günzburg 2017-09-22)

Flugplatz - Wetter - Laupheim

[Quelle: ADDS]
METAR
ETHL 221220Z 25005KT 9999 FEW130 BKN270 18/08 Q1021 BLU+ =
TAF
AMD ETHL 220824Z 2208/2217 VRB02KT 4000 BR BKN180 BECMG 2208/2210 26005KT 9999 NSW SCT300 =

Notice: Undefined index: sun in /homepages/1/d158740339/htdocs/joomla/modules/mod_wx/tmpl/default.php on line 13

Flugplatz - Wetter - Memmingen

[Quelle: ADDS]
METAR
EDJA 221250Z 29008KT CAVOK 18/08 Q1021 =
TAF
EDJA 221100Z 2212/2221 24005KT CAVOK =

Notice: Undefined index: sun in /homepages/1/d158740339/htdocs/joomla/modules/mod_wx/tmpl/default.php on line 13

Flugplatz - Wetter - Neuburg/Donau

[Quelle: ADDS]
METAR
ETSN 221220Z 14004KT 9999 SCT110 BKN160 15/09 Q1021 BLU =
TAF
ETSN 221025Z 2211/2220 VRB02KT 9000 NSW FEW015 BKN120 BY ETGL =

Notice: Undefined index: sun in /homepages/1/d158740339/htdocs/joomla/modules/mod_wx/tmpl/default.php on line 13

Flugplatz - Wetter - Stuttgart

[Quelle: ADDS]
METAR
EDDS 221250Z VRB02KT 9999 FEW036 19/10 Q1020 NOSIG =
TAF
EDDS 221100Z 2212/2312 VRB03KT CAVOK =

Notice: Undefined index: sun in /homepages/1/d158740339/htdocs/joomla/modules/mod_wx/tmpl/default.php on line 13

Flugplatz - Wetter - Niederstetten

[Quelle: ADDS]
METAR
ETHN 221220Z 30004KT 9999 FEW130 17/07 Q1021 BLU+ =
TAF
AMD ETHN 220932Z 2208/2217 13003KT 9999 NSW FEW120 BKN170 CANCEL 1000 =

Notice: Undefined index: sun in /homepages/1/d158740339/htdocs/joomla/modules/mod_wx/tmpl/default.php on line 13